sensor_id;sensor_type;location;lat;lon;timestamp;P1;durP1;ratioP1;P2;durP2;ratioP2
38465;SDS011;24244;51.950;5.902;2024-03-23T00:53:30;12.30;;;3.40;;
38465;SDS011;24244;51.950;5.902;2024-03-23T00:55:56;7.90;;;3.35;;
38465;SDS011;24244;51.950;5.902;2024-03-23T00:58:22;9.32;;;3.97;;
38465;SDS011;24244;51.950;5.902;2024-03-23T01:00:48;13.43;;;3.53;;
38465;SDS011;24244;51.950;5.902;2024-03-23T01:03:13;9.20;;;3.85;;
38465;SDS011;24244;51.950;5.902;2024-03-23T01:05:39;8.43;;;3.22;;
38465;SDS011;24244;51.950;5.902;2024-03-23T01:08:05;7.05;;;2.85;;
38465;SDS011;24244;51.950;5.902;2024-03-23T01:10:32;8.75;;;3.53;;
38465;SDS011;24244;51.950;5.902;2024-03-23T01:12:58;10.30;;;2.63;;
38465;SDS011;24244;51.950;5.902;2024-03-23T01:15:24;9.70;;;3.13;;
38465;SDS011;24244;51.950;5.902;2024-03-23T01:17:50;8.52;;;2.92;;
38465;SDS011;24244;51.950;5.902;2024-03-23T01:20:15;11.25;;;2.60;;
38465;SDS011;24244;51.950;5.902;2024-03-23T01:22:42;8.50;;;2.78;;
38465;SDS011;24244;51.950;5.902;2024-03-23T01:25:07;8.70;;;3.17;;
38465;SDS011;24244;51.950;5.902;2024-03-23T01:27:34;6.30;;;2.42;;
38465;SDS011;24244;51.950;5.902;2024-03-23T01:30:00;10.90;;;2.90;;
38465;SDS011;24244;51.950;5.902;2024-03-23T01:32:26;9.88;;;3.88;;
38465;SDS011;24244;51.950;5.902;2024-03-23T01:34:51;8.45;;;2.90;;
38465;SDS011;24244;51.950;5.902;2024-03-23T01:37:17;12.00;;;2.75;;
38465;SDS011;24244;51.950;5.902;2024-03-23T01:39:43;11.00;;;2.67;;
38465;SDS011;24244;51.950;5.902;2024-03-23T01:42:09;9.50;;;2.92;;
38465;SDS011;24244;51.950;5.902;2024-03-23T01:44:36;8.63;;;2.88;;
38465;SDS011;24244;51.950;5.902;2024-03-23T01:47:03;9.52;;;2.95;;
38465;SDS011;24244;51.950;5.902;2024-03-23T01:49:28;11.02;;;3.58;;
38465;SDS011;24244;51.950;5.902;2024-03-23T01:51:54;8.13;;;3.03;;
38465;SDS011;24244;51.950;5.902;2024-03-23T01:54:20;9.20;;;3.03;;
38465;SDS011;24244;51.950;5.902;2024-03-23T01:56:48;7.82;;;3.20;;
38465;SDS011;24244;51.950;5.902;2024-03-23T01:59:14;7.50;;;3.15;;
38465;SDS011;24244;51.950;5.902;2024-03-23T02:01:41;6.13;;;2.60;;
38465;SDS011;24244;51.950;5.902;2024-03-23T02:04:07;6.97;;;3.13;;
38465;SDS011;24244;51.950;5.902;2024-03-23T02:06:35;6.75;;;2.67;;
38465;SDS011;24244;51.950;5.902;2024-03-23T02:09:00;8.80;;;2.50;;
38465;SDS011;24244;51.950;5.902;2024-03-23T02:11:26;10.82;;;3.08;;
38465;SDS011;24244;51.950;5.902;2024-03-23T02:13:52;5.05;;;2.42;;
38465;SDS011;24244;51.950;5.902;2024-03-23T02:16:18;11.18;;;3.45;;
38465;SDS011;24244;51.950;5.902;2024-03-23T02:18:45;6.93;;;3.05;;
38465;SDS011;24244;51.950;5.902;2024-03-23T02:21:11;8.30;;;2.38;;
38465;SDS011;24244;51.950;5.902;2024-03-23T02:23:38;8.18;;;2.70;;
38465;SDS011;24244;51.950;5.902;2024-03-23T02:26:04;7.95;;;3.50;;
38465;SDS011;24244;51.950;5.902;2024-03-23T02:28:29;8.35;;;3.38;;
38465;SDS011;24244;51.950;5.902;2024-03-23T02:30:55;9.15;;;3.30;;
38465;SDS011;24244;51.950;5.902;2024-03-23T02:33:21;12.73;;;4.32;;
38465;SDS011;24244;51.950;5.902;2024-03-23T02:35:46;9.25;;;3.45;;
38465;SDS011;24244;51.950;5.902;2024-03-23T02:38:12;10.98;;;4.03;;
38465;SDS011;24244;51.950;5.902;2024-03-23T02:40:40;7.35;;;2.58;;
38465;SDS011;24244;51.950;5.902;2024-03-23T02:43:05;8.82;;;3.50;;
38465;SDS011;24244;51.950;5.902;2024-03-23T02:45:31;8.43;;;2.90;;
38465;SDS011;24244;51.950;5.902;2024-03-23T02:47:57;12.80;;;3.20;;
38465;SDS011;24244;51.950;5.902;2024-03-23T02:50:22;8.57;;;3.38;;
38465;SDS011;24244;51.950;5.902;2024-03-23T02:52:48;12.73;;;4.07;;
38465;SDS011;24244;51.950;5.902;2024-03-23T02:55:14;10.85;;;3.72;;
38465;SDS011;24244;51.950;5.902;2024-03-23T02:57:41;7.13;;;3.53;;
38465;SDS011;24244;51.950;5.902;2024-03-23T03:00:07;7.40;;;3.83;;
38465;SDS011;24244;51.950;5.902;2024-03-23T03:02:34;9.02;;;3.67;;
38465;SDS011;24244;51.950;5.902;2024-03-23T03:05:00;7.78;;;3.13;;
38465;SDS011;24244;51.950;5.902;2024-03-23T03:07:26;11.98;;;3.92;;
38465;SDS011;24244;51.950;5.902;2024-03-23T03:09:51;9.57;;;4.05;;
38465;SDS011;24244;51.950;5.902;2024-03-23T03:12:17;10.60;;;4.65;;
38465;SDS011;24244;51.950;5.902;2024-03-23T03:14:44;11.10;;;4.80;;
38465;SDS011;24244;51.950;5.902;2024-03-23T03:17:10;11.05;;;5.13;;
38465;SDS011;24244;51.950;5.902;2024-03-23T03:19:35;13.38;;;4.70;;
38465;SDS011;24244;51.950;5.902;2024-03-23T03:22:01;12.57;;;3.95;;
38465;SDS011;24244;51.950;5.902;2024-03-23T03:24:27;10.13;;;4.68;;
38465;SDS011;24244;51.950;5.902;2024-03-23T03:26:53;12.48;;;4.40;;
38465;SDS011;24244;51.950;5.902;2024-03-23T03:29:19;11.10;;;4.78;;
38465;SDS011;24244;51.950;5.902;2024-03-23T03:31:46;14.93;;;4.03;;
38465;SDS011;24244;51.950;5.902;2024-03-23T03:34:12;14.55;;;4.78;;
38465;SDS011;24244;51.950;5.902;2024-03-23T03:36:37;13.85;;;4.65;;
38465;SDS011;24244;51.950;5.902;2024-03-23T03:39:03;14.05;;;4.72;;
38465;SDS011;24244;51.950;5.902;2024-03-23T03:41:30;14.00;;;5.47;;
38465;SDS011;24244;51.950;5.902;2024-03-23T03:43:56;11.25;;;4.90;;
38465;SDS011;24244;51.950;5.902;2024-03-23T03:46:26;14.27;;;5.90;;
38465;SDS011;24244;51.950;5.902;2024-03-23T03:48:53;11.23;;;4.20;;
38465;SDS011;24244;51.950;5.902;2024-03-23T03:51:19;13.00;;;5.78;;
38465;SDS011;24244;51.950;5.902;2024-03-23T03:53:45;12.38;;;5.20;;
38465;SDS011;24244;51.950;5.902;2024-03-23T03:56:11;15.15;;;5.70;;
38465;SDS011;24244;51.950;5.902;2024-03-23T03:58:37;16.38;;;5.15;;
38465;SDS011;24244;51.950;5.902;2024-03-23T04:01:02;13.65;;;6.68;;
38465;SDS011;24244;51.950;5.902;2024-03-23T04:03:28;14.20;;;6.07;;
38465;SDS011;24244;51.950;5.902;2024-03-23T04:05:55;14.40;;;5.40;;
38465;SDS011;24244;51.950;5.902;2024-03-23T04:08:21;13.95;;;4.93;;
38465;SDS011;24244;51.950;5.902;2024-03-23T04:10:47;12.05;;;4.65;;
38465;SDS011;24244;51.950;5.902;2024-03-23T04:13:12;12.93;;;4.80;;
38465;SDS011;24244;51.950;5.902;2024-03-23T04:15:38;11.88;;;5.45;;
38465;SDS011;24244;51.950;5.902;2024-03-23T04:18:05;13.07;;;5.50;;
38465;SDS011;24244;51.950;5.902;2024-03-23T04:20:30;14.50;;;5.95;;
38465;SDS011;24244;51.950;5.902;2024-03-23T04:22:58;15.43;;;5.78;;
38465;SDS011;24244;51.950;5.902;2024-03-23T04:25:24;12.43;;;4.38;;
38465;SDS011;24244;51.950;5.902;2024-03-23T04:27:50;13.68;;;5.45;;
38465;SDS011;24244;51.950;5.902;2024-03-23T04:30:16;12.13;;;4.45;;
38465;SDS011;24244;51.950;5.902;2024-03-23T04:32:42;11.77;;;4.97;;
38465;SDS011;24244;51.950;5.902;2024-03-23T04:35:08;10.48;;;4.05;;
38465;SDS011;24244;51.950;5.902;2024-03-23T04:37:38;13.13;;;4.80;;
38465;SDS011;24244;51.950;5.902;2024-03-23T04:40:08;9.32;;;4.50;;
38465;SDS011;24244;51.950;5.902;2024-03-23T04:42:36;12.27;;;4.63;;
38465;SDS011;24244;51.950;5.902;2024-03-23T04:45:02;13.93;;;4.45;;
38465;SDS011;24244;51.950;5.902;2024-03-23T04:47:29;11.98;;;4.53;;
38465;SDS011;24244;51.950;5.902;2024-03-23T04:49:54;11.30;;;3.53;;
38465;SDS011;24244;51.950;5.902;2024-03-23T04:52:20;12.15;;;4.55;;
38465;SDS011;24244;51.950;5.902;2024-03-23T04:54:46;13.07;;;4.50;;
38465;SDS011;24244;51.950;5.902;2024-03-23T04:57:13;10.15;;;3.25;;
38465;SDS011;24244;51.950;5.902;2024-03-23T04:59:38;12.38;;;3.80;;
38465;SDS011;24244;51.950;5.902;2024-03-23T05:02:04;12.18;;;4.07;;
38465;SDS011;24244;51.950;5.902;2024-03-23T05:04:30;8.20;;;3.00;;
38465;SDS011;24244;51.950;5.902;2024-03-23T05:06:57;8.52;;;3.40;;
38465;SDS011;24244;51.950;5.902;2024-03-23T05:09:23;8.15;;;3.30;;
38465;SDS011;24244;51.950;5.902;2024-03-23T05:11:48;9.13;;;3.42;;
38465;SDS011;24244;51.950;5.902;2024-03-23T05:14:15;7.00;;;2.85;;
38465;SDS011;24244;51.950;5.902;2024-03-23T05:16:41;6.22;;;3.17;;
38465;SDS011;24244;51.950;5.902;2024-03-23T05:19:07;11.05;;;3.45;;
38465;SDS011;24244;51.950;5.902;2024-03-23T05:21:33;7.30;;;3.13;;
38465;SDS011;24244;51.950;5.902;2024-03-23T05:23:58;11.48;;;2.65;;
38465;SDS011;24244;51.950;5.902;2024-03-23T05:26:24;8.02;;;2.35;;
38465;SDS011;24244;51.950;5.902;2024-03-23T05:28:50;10.63;;;3.00;;
38465;SDS011;24244;51.950;5.902;2024-03-23T05:31:23;7.57;;;2.78;;
38465;SDS011;24244;51.950;5.902;2024-03-23T05:33:49;5.50;;;2.70;;
38465;SDS011;24244;51.950;5.902;2024-03-23T05:36:15;7.53;;;2.70;;
38465;SDS011;24244;51.950;5.902;2024-03-23T05:38:40;12.40;;;2.65;;
38465;SDS011;24244;51.950;5.902;2024-03-23T05:41:06;7.63;;;3.45;;
38465;SDS011;24244;51.950;5.902;2024-03-23T05:43:32;8.13;;;2.78;;
38465;SDS011;24244;51.950;5.902;2024-03-23T05:45:59;6.40;;;2.75;;
38465;SDS011;24244;51.950;5.902;2024-03-23T05:48:26;8.32;;;2.90;;
38465;SDS011;24244;51.950;5.902;2024-03-23T05:50:53;7.70;;;2.28;;
38465;SDS011;24244;51.950;5.902;2024-03-23T05:53:19;10.13;;;3.25;;
38465;SDS011;24244;51.950;5.902;2024-03-23T05:55:48;7.90;;;3.22;;
38465;SDS011;24244;51.950;5.902;2024-03-23T05:58:14;9.90;;;2.55;;
38465;SDS011;24244;51.950;5.902;2024-03-23T06:00:41;9.27;;;2.85;;
38465;SDS011;24244;51.950;5.902;2024-03-23T06:03:07;11.48;;;3.00;;
38465;SDS011;24244;51.950;5.902;2024-03-23T06:05:35;9.00;;;2.20;;
38465;SDS011;24244;51.950;5.902;2024-03-23T06:08:00;5.72;;;2.85;;
38465;SDS011;24244;51.950;5.902;2024-03-23T06:10:26;12.07;;;3.33;;
38465;SDS011;24244;51.950;5.902;2024-03-23T06:12:52;7.25;;;2.45;;
38465;SDS011;24244;51.950;5.902;2024-03-23T06:15:17;10.07;;;2.60;;
38465;SDS011;24244;51.950;5.902;2024-03-23T06:17:43;6.93;;;2.78;;
38465;SDS011;24244;51.950;5.902;2024-03-23T06:20:09;8.43;;;3.47;;
38465;SDS011;24244;51.950;5.902;2024-03-23T06:22:37;16.85;;;2.63;;
38465;SDS011;24244;51.950;5.902;2024-03-23T06:25:03;6.97;;;1.92;;
38465;SDS011;24244;51.950;5.902;2024-03-23T06:27:29;7.43;;;2.45;;
38465;SDS011;24244;51.950;5.902;2024-03-23T06:29:54;9.43;;;2.55;;
38465;SDS011;24244;51.950;5.902;2024-03-23T06:32:20;11.45;;;2.47;;
38465;SDS011;24244;51.950;5.902;2024-03-23T06:34:46;7.47;;;2.65;;
38465;SDS011;24244;51.950;5.902;2024-03-23T06:37:12;11.63;;;2.80;;
38465;SDS011;24244;51.950;5.902;2024-03-23T06:39:39;10.68;;;3.55;;
38465;SDS011;24244;51.950;5.902;2024-03-23T06:42:05;14.27;;;3.10;;
38465;SDS011;24244;51.950;5.902;2024-03-23T06:44:31;7.78;;;1.83;;
38465;SDS011;24244;51.950;5.902;2024-03-23T06:46:57;6.07;;;2.10;;
38465;SDS011;24244;51.950;5.902;2024-03-23T06:49:23;4.80;;;2.28;;
38465;SDS011;24244;51.950;5.902;2024-03-23T06:51:49;9.85;;;2.50;;
38465;SDS011;24244;51.950;5.902;2024-03-23T06:54:16;7.55;;;2.30;;
38465;SDS011;24244;51.950;5.902;2024-03-23T06:56:43;10.43;;;2.80;;
38465;SDS011;24244;51.950;5.902;2024-03-23T06:59:09;9.48;;;2.80;;
38465;SDS011;24244;51.950;5.902;2024-03-23T07:01:35;9.93;;;2.22;;
38465;SDS011;24244;51.950;5.902;2024-03-23T07:04:01;8.18;;;2.17;;
38465;SDS011;24244;51.950;5.902;2024-03-23T07:06:26;5.60;;;2.20;;
38465;SDS011;24244;51.950;5.902;2024-03-23T07:08:52;8.13;;;2.30;;
38465;SDS011;24244;51.950;5.902;2024-03-23T07:11:18;5.35;;;1.67;;
38465;SDS011;24244;51.950;5.902;2024-03-23T07:13:49;9.77;;;2.65;;
38465;SDS011;24244;51.950;5.902;2024-03-23T07:16:15;8.27;;;2.67;;
38465;SDS011;24244;51.950;5.902;2024-03-23T07:18:41;4.93;;;2.63;;
38465;SDS011;24244;51.950;5.902;2024-03-23T07:21:07;6.70;;;2.20;;
38465;SDS011;24244;51.950;5.902;2024-03-23T07:23:32;9.13;;;1.83;;
38465;SDS011;24244;51.950;5.902;2024-03-23T07:25:58;6.13;;;2.03;;
38465;SDS011;24244;51.950;5.902;2024-03-23T07:28:25;7.45;;;2.55;;
38465;SDS011;24244;51.950;5.902;2024-03-23T07:31:02;10.27;;;2.85;;
38465;SDS011;24244;51.950;5.902;2024-03-23T07:33:29;6.10;;;1.58;;
38465;SDS011;24244;51.950;5.902;2024-03-23T07:35:55;8.20;;;2.50;;
38465;SDS011;24244;51.950;5.902;2024-03-23T07:38:21;6.80;;;2.00;;
38465;SDS011;24244;51.950;5.902;2024-03-23T07:40:47;5.97;;;2.22;;
38465;SDS011;24244;51.950;5.902;2024-03-23T07:43:15;6.43;;;2.15;;
38465;SDS011;24244;51.950;5.902;2024-03-23T07:45:40;5.65;;;2.03;;
38465;SDS011;24244;51.950;5.902;2024-03-23T07:48:08;5.35;;;1.92;;
38465;SDS011;24244;51.950;5.902;2024-03-23T07:50:34;8.13;;;2.00;;
38465;SDS011;24244;51.950;5.902;2024-03-23T07:52:59;9.00;;;2.40;;
38465;SDS011;24244;51.950;5.902;2024-03-23T07:55:25;6.47;;;2.15;;
38465;SDS011;24244;51.950;5.902;2024-03-23T07:57:51;7.78;;;2.67;;
38465;SDS011;24244;51.950;5.902;2024-03-23T08:00:17;7.88;;;2.65;;
38465;SDS011;24244;51.950;5.902;2024-03-23T08:02:43;7.40;;;1.83;;
38465;SDS011;24244;51.950;5.902;2024-03-23T08:05:10;9.88;;;2.20;;
38465;SDS011;24244;51.950;5.902;2024-03-23T08:07:36;5.93;;;2.25;;
38465;SDS011;24244;51.950;5.902;2024-03-23T08:10:01;4.57;;;1.70;;
38465;SDS011;24244;51.950;5.902;2024-03-23T08:12:28;6.90;;;1.63;;
38465;SDS011;24244;51.950;5.902;2024-03-23T08:14:54;8.50;;;2.20;;
38465;SDS011;24244;51.950;5.902;2024-03-23T08:17:20;9.85;;;2.40;;
38465;SDS011;24244;51.950;5.902;2024-03-23T08:19:46;4.53;;;2.40;;
38465;SDS011;24244;51.950;5.902;2024-03-23T08:22:13;4.53;;;2.50;;
38465;SDS011;24244;51.950;5.902;2024-03-23T08:24:38;7.47;;;2.35;;
38465;SDS011;24244;51.950;5.902;2024-03-23T08:27:05;8.88;;;2.10;;
38465;SDS011;24244;51.950;5.902;2024-03-23T08:29:30;6.40;;;2.90;;
38465;SDS011;24244;51.950;5.902;2024-03-23T08:31:56;4.25;;;1.80;;
38465;SDS011;24244;51.950;5.902;2024-03-23T08:34:22;5.47;;;1.25;;
38465;SDS011;24244;51.950;5.902;2024-03-23T08:36:48;6.63;;;2.17;;
38465;SDS011;24244;51.950;5.902;2024-03-23T08:39:16;7.00;;;2.00;;
38465;SDS011;24244;51.950;5.902;2024-03-23T08:41:42;7.80;;;2.35;;
38465;SDS011;24244;51.950;5.902;2024-03-23T08:44:11;3.92;;;1.63;;
38465;SDS011;24244;51.950;5.902;2024-03-23T08:46:37;10.85;;;2.50;;
38465;SDS011;24244;51.950;5.902;2024-03-23T08:49:02;7.65;;;2.15;;
38465;SDS011;24244;51.950;5.902;2024-03-23T08:51:28;5.40;;;2.00;;
38465;SDS011;24244;51.950;5.902;2024-03-23T08:53:54;5.07;;;1.95;;
38465;SDS011;24244;51.950;5.902;2024-03-23T08:56:21;4.20;;;1.20;;
38465;SDS011;24244;51.950;5.902;2024-03-23T08:58:47;5.45;;;1.88;;
38465;SDS011;24244;51.950;5.902;2024-03-23T09:01:12;3.88;;;1.25;;
38465;SDS011;24244;51.950;5.902;2024-03-23T09:03:39;6.25;;;1.45;;
38465;SDS011;24244;51.950;5.902;2024-03-23T09:06:06;5.13;;;1.10;;
38465;SDS011;24244;51.950;5.902;2024-03-23T09:08:32;5.85;;;1.30;;
38465;SDS011;24244;51.950;5.902;2024-03-23T09:11:00;6.13;;;1.33;;
38465;SDS011;24244;51.950;5.902;2024-03-23T09:13:30;4.50;;;1.10;;
38465;SDS011;24244;51.950;5.902;2024-03-23T09:15:56;8.82;;;1.50;;
38465;SDS011;24244;51.950;5.902;2024-03-23T09:18:22;4.90;;;1.20;;
38465;SDS011;24244;51.950;5.902;2024-03-23T09:20:47;7.10;;;1.67;;
38465;SDS011;24244;51.950;5.902;2024-03-23T09:23:13;3.50;;;1.30;;
38465;SDS011;24244;51.950;5.902;2024-03-23T09:25:39;6.78;;;2.38;;
38465;SDS011;24244;51.950;5.902;2024-03-23T09:28:05;8.52;;;2.20;;
38465;SDS011;24244;51.950;5.902;2024-03-23T09:30:33;7.00;;;1.30;;
38465;SDS011;24244;51.950;5.902;2024-03-23T09:32:59;1.70;;;0.68;;
38465;SDS011;24244;51.950;5.902;2024-03-23T09:35:25;3.65;;;1.30;;
38465;SDS011;24244;51.950;5.902;2024-03-23T09:37:50;3.53;;;1.00;;
38465;SDS011;24244;51.950;5.902;2024-03-23T09:40:16;6.13;;;1.50;;
38465;SDS011;24244;51.950;5.902;2024-03-23T09:42:42;3.30;;;0.85;;
38465;SDS011;24244;51.950;5.902;2024-03-23T09:45:16;3.92;;;1.40;;
38465;SDS011;24244;51.950;5.902;2024-03-23T09:47:44;4.70;;;2.08;;
38465;SDS011;24244;51.950;5.902;2024-03-23T09:50:12;6.28;;;1.30;;
38465;SDS011;24244;51.950;5.902;2024-03-23T09:52:38;4.47;;;0.95;;
38465;SDS011;24244;51.950;5.902;2024-03-23T09:55:03;5.35;;;1.05;;
38465;SDS011;24244;51.950;5.902;2024-03-23T09:57:29;5.35;;;1.80;;
38465;SDS011;24244;51.950;5.902;2024-03-23T09:59:55;4.93;;;1.48;;
38465;SDS011;24244;51.950;5.902;2024-03-23T10:02:23;3.97;;;0.82;;
38465;SDS011;24244;51.950;5.902;2024-03-23T10:04:51;4.00;;;0.80;;
38465;SDS011;24244;51.950;5.902;2024-03-23T10:07:18;4.43;;;1.02;;
38465;SDS011;24244;51.950;5.902;2024-03-23T10:09:45;2.20;;;0.80;;
38465;SDS011;24244;51.950;5.902;2024-03-23T10:12:20;8.77;;;1.27;;
38465;SDS011;24244;51.950;5.902;2024-03-23T10:14:47;2.78;;;1.10;;
38465;SDS011;24244;51.950;5.902;2024-03-23T10:17:13;5.53;;;1.45;;
38465;SDS011;24244;51.950;5.902;2024-03-23T10:19:43;6.47;;;2.30;;
38465;SDS011;24244;51.950;5.902;2024-03-23T10:22:12;4.45;;;0.63;;
38465;SDS011;24244;51.950;5.902;2024-03-23T10:24:40;9.70;;;1.98;;
38465;SDS011;24244;51.950;5.902;2024-03-23T10:27:06;4.53;;;1.13;;
38465;SDS011;24244;51.950;5.902;2024-03-23T10:29:31;5.13;;;1.20;;
38465;SDS011;24244;51.950;5.902;2024-03-23T10:32:07;7.63;;;1.55;;
38465;SDS011;24244;51.950;5.902;2024-03-23T10:34:33;6.25;;;1.23;;
38465;SDS011;24244;51.950;5.902;2024-03-23T10:36:59;3.55;;;0.88;;
38465;SDS011;24244;51.950;5.902;2024-03-23T10:39:30;4.15;;;0.85;;
38465;SDS011;24244;51.950;5.902;2024-03-23T10:41:59;5.50;;;1.10;;
38465;SDS011;24244;51.950;5.902;2024-03-23T10:44:27;4.78;;;1.52;;
38465;SDS011;24244;51.950;5.902;2024-03-23T10:46:54;7.18;;;1.52;;
38465;SDS011;24244;51.950;5.902;2024-03-23T10:49:25;4.68;;;1.65;;
38465;SDS011;24244;51.950;5.902;2024-03-23T10:51:52;2.65;;;1.10;;
38465;SDS011;24244;51.950;5.902;2024-03-23T10:54:18;5.68;;;1.48;;
38465;SDS011;24244;51.950;5.902;2024-03-23T10:56:46;5.30;;;1.70;;
38465;SDS011;24244;51.950;5.902;2024-03-23T10:59:15;6.50;;;1.98;;
38465;SDS011;24244;51.950;5.902;2024-03-23T11:01:55;6.90;;;2.67;;
38465;SDS011;24244;51.950;5.902;2024-03-23T11:04:31;5.75;;;1.60;;
38465;SDS011;24244;51.950;5.902;2024-03-23T11:06:57;4.05;;;1.95;;
38465;SDS011;24244;51.950;5.902;2024-03-23T11:09:39;4.45;;;1.83;;
38465;SDS011;24244;51.950;5.902;2024-03-23T11:12:18;5.35;;;1.30;;
38465;SDS011;24244;51.950;5.902;2024-03-23T11:14:52;5.22;;;1.95;;
38465;SDS011;24244;51.950;5.902;2024-03-23T11:17:19;5.10;;;1.58;;
38465;SDS011;24244;51.950;5.902;2024-03-23T11:19:48;3.72;;;1.63;;
38465;SDS011;24244;51.950;5.902;2024-03-23T11:25:16;7.10;;;2.10;;
38465;SDS011;24244;51.950;5.902;2024-03-23T11:27:44;6.93;;;1.70;;
38465;SDS011;24244;51.950;5.902;2024-03-23T11:30:11;6.25;;;1.50;;
38465;SDS011;24244;51.950;5.902;2024-03-23T11:32:38;6.90;;;1.73;;
38465;SDS011;24244;51.950;5.902;2024-03-23T11:35:04;4.90;;;1.67;;
38465;SDS011;24244;51.950;5.902;2024-03-23T11:37:31;5.88;;;1.20;;
38465;SDS011;24244;51.950;5.902;2024-03-23T11:39:57;3.47;;;1.40;;
38465;SDS011;24244;51.950;5.902;2024-03-23T11:42:22;4.47;;;1.52;;
38465;SDS011;24244;51.950;5.902;2024-03-23T11:44:49;4.68;;;1.00;;
38465;SDS011;24244;51.950;5.902;2024-03-23T11:47:15;3.10;;;1.13;;
38465;SDS011;24244;51.950;5.902;2024-03-23T11:49:41;7.75;;;1.02;;
38465;SDS011;24244;51.950;5.902;2024-03-23T11:52:06;2.97;;;1.00;;
38465;SDS011;24244;51.950;5.902;2024-03-23T11:54:35;6.22;;;1.20;;
38465;SDS011;24244;51.950;5.902;2024-03-23T11:57:01;5.50;;;1.15;;
38465;SDS011;24244;51.950;5.902;2024-03-23T11:59:33;6.30;;;0.90;;
38465;SDS011;24244;51.950;5.902;2024-03-23T12:02:05;3.65;;;1.20;;
38465;SDS011;24244;51.950;5.902;2024-03-23T12:04:31;9.20;;;1.42;;
38465;SDS011;24244;51.950;5.902;2024-03-23T12:07:10;5.10;;;1.38;;
38465;SDS011;24244;51.950;5.902;2024-03-23T12:09:37;4.20;;;1.00;;
38465;SDS011;24244;51.950;5.902;2024-03-23T12:12:08;3.78;;;1.42;;
38465;SDS011;24244;51.950;5.902;2024-03-23T12:14:34;5.72;;;1.20;;
38465;SDS011;24244;51.950;5.902;2024-03-23T12:17:08;2.63;;;1.17;;
38465;SDS011;24244;51.950;5.902;2024-03-23T12:19:34;4.72;;;1.27;;
38465;SDS011;24244;51.950;5.902;2024-03-23T12:22:00;6.50;;;1.00;;
38465;SDS011;24244;51.950;5.902;2024-03-23T12:24:26;2.40;;;1.17;;
38465;SDS011;24244;51.950;5.902;2024-03-23T12:26:52;4.57;;;1.48;;
38465;SDS011;24244;51.950;5.902;2024-03-23T12:29:17;2.10;;;1.00;;
38465;SDS011;24244;51.950;5.902;2024-03-23T12:31:44;6.10;;;0.88;;
38465;SDS011;24244;51.950;5.902;2024-03-23T12:34:11;4.32;;;1.50;;
38465;SDS011;24244;51.950;5.902;2024-03-23T12:36:36;7.13;;;1.23;;
38465;SDS011;24244;51.950;5.902;2024-03-23T12:39:02;3.83;;;1.35;;
38465;SDS011;24244;51.950;5.902;2024-03-23T12:41:28;5.43;;;1.13;;
38465;SDS011;24244;51.950;5.902;2024-03-23T12:43:53;5.97;;;1.17;;
38465;SDS011;24244;51.950;5.902;2024-03-23T12:46:19;3.78;;;1.48;;
38465;SDS011;24244;51.950;5.902;2024-03-23T12:48:45;4.57;;;1.45;;
38465;SDS011;24244;51.950;5.902;2024-03-23T12:51:12;4.88;;;1.58;;
38465;SDS011;24244;51.950;5.902;2024-03-23T12:53:38;3.55;;;1.27;;
38465;SDS011;24244;51.950;5.902;2024-03-23T12:56:04;3.08;;;0.60;;
38465;SDS011;24244;51.950;5.902;2024-03-23T12:58:29;4.90;;;0.80;;
38465;SDS011;24244;51.950;5.902;2024-03-23T13:00:55;4.88;;;0.90;;
38465;SDS011;24244;51.950;5.902;2024-03-23T13:03:23;4.78;;;1.65;;
38465;SDS011;24244;51.950;5.902;2024-03-23T13:05:51;3.17;;;0.77;;
38465;SDS011;24244;51.950;5.902;2024-03-23T13:08:18;4.60;;;0.68;;
38465;SDS011;24244;51.950;5.902;2024-03-23T13:10:44;3.65;;;0.70;;
38465;SDS011;24244;51.950;5.902;2024-03-23T13:13:10;3.50;;;0.80;;
38465;SDS011;24244;51.950;5.902;2024-03-23T13:15:36;5.80;;;1.30;;
38465;SDS011;24244;51.950;5.902;2024-03-23T13:18:01;2.40;;;0.80;;
38465;SDS011;24244;51.950;5.902;2024-03-23T13:20:27;3.00;;;1.08;;
38465;SDS011;24244;51.950;5.902;2024-03-23T13:22:53;2.47;;;1.15;;
38465;SDS011;24244;51.950;5.902;2024-03-23T13:25:20;4.10;;;1.02;;
38465;SDS011;24244;51.950;5.902;2024-03-23T13:27:46;4.22;;;1.10;;
38465;SDS011;24244;51.950;5.902;2024-03-23T13:30:13;5.00;;;1.02;;
38465;SDS011;24244;51.950;5.902;2024-03-23T13:32:38;3.22;;;0.63;;
38465;SDS011;24244;51.950;5.902;2024-03-23T13:35:04;4.72;;;0.95;;
38465;SDS011;24244;51.950;5.902;2024-03-23T13:37:31;4.50;;;0.80;;
38465;SDS011;24244;51.950;5.902;2024-03-23T13:39:57;6.15;;;1.23;;
38465;SDS011;24244;51.950;5.902;2024-03-23T13:42:24;3.75;;;1.05;;
38465;SDS011;24244;51.950;5.902;2024-03-23T13:44:51;4.85;;;1.17;;
38465;SDS011;24244;51.950;5.902;2024-03-23T13:47:17;4.40;;;0.60;;
38465;SDS011;24244;51.950;5.902;2024-03-23T13:49:42;4.25;;;0.73;;
38465;SDS011;24244;51.950;5.902;2024-03-23T13:52:08;2.60;;;0.98;;
38465;SDS011;24244;51.950;5.902;2024-03-23T13:54:34;7.35;;;1.00;;
38465;SDS011;24244;51.950;5.902;2024-03-23T13:56:59;4.47;;;2.10;;
38465;SDS011;24244;51.950;5.902;2024-03-23T13:59:26;5.65;;;0.98;;
38465;SDS011;24244;51.950;5.902;2024-03-23T14:01:53;4.10;;;0.80;;
38465;SDS011;24244;51.950;5.902;2024-03-23T14:04:18;3.53;;;1.35;;
38465;SDS011;24244;51.950;5.902;2024-03-23T14:06:45;4.30;;;0.85;;
38465;SDS011;24244;51.950;5.902;2024-03-23T14:09:11;2.30;;;0.50;;
38465;SDS011;24244;51.950;5.902;2024-03-23T14:11:37;3.72;;;0.90;;
38465;SDS011;24244;51.950;5.902;2024-03-23T14:14:03;5.85;;;0.70;;
38465;SDS011;24244;51.950;5.902;2024-03-23T14:16:30;5.15;;;1.00;;
38465;SDS011;24244;51.950;5.902;2024-03-23T14:18:56;4.88;;;0.70;;
38465;SDS011;24244;51.950;5.902;2024-03-23T14:21:22;4.25;;;1.10;;
38465;SDS011;24244;51.950;5.902;2024-03-23T14:23:48;2.88;;;0.70;;
38465;SDS011;24244;51.950;5.902;2024-03-23T14:26:13;2.75;;;1.23;;
38465;SDS011;24244;51.950;5.902;2024-03-23T14:28:39;4.22;;;1.30;;
38465;SDS011;24244;51.950;5.902;2024-03-23T14:31:05;3.42;;;0.90;;
38465;SDS011;24244;51.950;5.902;2024-03-23T14:33:37;3.17;;;0.70;;
38465;SDS011;24244;51.950;5.902;2024-03-23T14:36:03;2.72;;;0.50;;
38465;SDS011;24244;51.950;5.902;2024-03-23T14:38:29;3.60;;;0.95;;
38465;SDS011;24244;51.950;5.902;2024-03-23T14:40:57;4.40;;;1.00;;
38465;SDS011;24244;51.950;5.902;2024-03-23T14:43:23;2.35;;;0.65;;
38465;SDS011;24244;51.950;5.902;2024-03-23T14:48:33;4.55;;;1.00;;
38465;SDS011;24244;51.950;5.902;2024-03-23T14:51:01;5.45;;;1.20;;
38465;SDS011;24244;51.950;5.902;2024-03-23T14:53:30;4.40;;;0.73;;
38465;SDS011;24244;51.950;5.902;2024-03-23T14:55:56;2.95;;;0.55;;
38465;SDS011;24244;51.950;5.902;2024-03-23T14:58:22;3.03;;;1.42;;
38465;SDS011;24244;51.950;5.902;2024-03-23T15:00:48;2.40;;;1.30;;
38465;SDS011;24244;51.950;5.902;2024-03-23T15:03:14;3.83;;;0.60;;
38465;SDS011;24244;51.950;5.902;2024-03-23T15:05:40;4.70;;;1.02;;
38465;SDS011;24244;51.950;5.902;2024-03-23T15:08:07;4.25;;;0.70;;
38465;SDS011;24244;51.950;5.902;2024-03-23T15:10:33;2.45;;;0.65;;
38465;SDS011;24244;51.950;5.902;2024-03-23T15:12:59;2.30;;;0.50;;
38465;SDS011;24244;51.950;5.902;2024-03-23T15:15:25;3.63;;;1.30;;
38465;SDS011;24244;51.950;5.902;2024-03-23T15:17:51;4.35;;;0.68;;
38465;SDS011;24244;51.950;5.902;2024-03-23T15:20:16;2.05;;;0.60;;
38465;SDS011;24244;51.950;5.902;2024-03-23T15:22:42;4.15;;;0.90;;
38465;SDS011;24244;51.950;5.902;2024-03-23T15:25:09;2.80;;;1.48;;
38465;SDS011;24244;51.950;5.902;2024-03-23T15:27:35;3.95;;;0.98;;
38465;SDS011;24244;51.950;5.902;2024-03-23T15:30:01;2.53;;;0.90;;
38465;SDS011;24244;51.950;5.902;2024-03-23T15:32:26;5.55;;;1.35;;
38465;SDS011;24244;51.950;5.902;2024-03-23T15:34:52;4.18;;;1.35;;
38465;SDS011;24244;51.950;5.902;2024-03-23T15:37:18;2.90;;;1.00;;
38465;SDS011;24244;51.950;5.902;2024-03-23T15:39:43;3.67;;;1.00;;